sensor_id;sensor_type;location;lat;lon;timestamp;pressure;altitude;pressure_sealevel;temperature;humidity
11987;BME280;6053;51.382;6.768;2023-05-08T00:00:03;101618.66;;;21.09;100.00
11987;BME280;6053;51.382;6.768;2023-05-08T00:02:32;101616.69;;;21.10;100.00
11987;BME280;6053;51.382;6.768;2023-05-08T00:05:00;101615.56;;;21.11;100.00
11987;BME280;6053;51.382;6.768;2023-05-08T00:07:29;101613.28;;;21.18;100.00
11987;BME280;6053;51.382;6.768;2023-05-08T00:09:58;101609.66;;;21.17;100.00
11987;BME280;6053;51.382;6.768;2023-05-08T00:12:27;101611.88;;;21.15;100.00
11987;BME280;6053;51.382;6.768;2023-05-08T00:14:55;101608.28;;;21.10;100.00
11987;BME280;6053;51.382;6.768;2023-05-08T00:17:24;101607.97;;;21.11;100.00
11987;BME280;6053;51.382;6.768;2023-05-08T00:19:52;101610.50;;;21.13;100.00
11987;BME280;6053;51.382;6.768;2023-05-08T00:22:20;101611.63;;;21.17;100.00
11987;BME280;6053;51.382;6.768;2023-05-08T00:24:49;101613.28;;;21.18;99.43
11987;BME280;6053;51.382;6.768;2023-05-08T00:27:18;101612.75;;;21.11;100.00
11987;BME280;6053;51.382;6.768;2023-05-08T00:29:47;101615.53;;;21.06;100.00
11987;BME280;6053;51.382;6.768;2023-05-08T00:32:16;101607.44;;;21.09;100.00
11987;BME280;6053;51.382;6.768;2023-05-08T00:34:44;101619.50;;;21.00;100.00
11987;BME280;6053;51.382;6.768;2023-05-08T00:37:13;101616.69;;;20.79;100.00
11987;BME280;6053;51.382;6.768;2023-05-08T00:39:41;101610.47;;;20.52;100.00
11987;BME280;6053;51.382;6.768;2023-05-08T00:42:09;101612.75;;;20.65;100.00
11987;BME280;6053;51.382;6.768;2023-05-08T00:44:39;101618.38;;;20.60;100.00
11987;BME280;6053;51.382;6.768;2023-05-08T00:47:08;101608.28;;;20.74;100.00
11987;BME280;6053;51.382;6.768;2023-05-08T00:49:36;101615.00;;;20.93;100.00
11987;BME280;6053;51.382;6.768;2023-05-08T00:52:05;101616.34;;;20.50;100.00
11987;BME280;6053;51.382;6.768;2023-05-08T00:54:35;101618.66;;;20.74;100.00
11987;BME280;6053;51.382;6.768;2023-05-08T00:57:06;101609.94;;;20.55;100.00
11987;BME280;6053;51.382;6.768;2023-05-08T00:59:35;101615.09;;;20.00;100.00
11987;BME280;6053;51.382;6.768;2023-05-08T01:02:05;101612.66;;;19.61;100.00
11987;BME280;6053;51.382;6.768;2023-05-08T01:04:34;101610.91;;;20.02;100.00
11987;BME280;6053;51.382;6.768;2023-05-08T01:07:03;101610.44;;;20.36;100.00
11987;BME280;6053;51.382;6.768;2023-05-08T01:09:32;101604.34;;;20.65;100.00
11987;BME280;6053;51.382;6.768;2023-05-08T01:12:11;101616.69;;;20.79;100.00
11987;BME280;6053;51.382;6.768;2023-05-08T01:14:56;101615.56;;;20.70;100.00
11987;BME280;6053;51.382;6.768;2023-05-08T01:17:41;101615.53;;;20.65;100.00
11987;BME280;6053;51.382;6.768;2023-05-08T01:20:29;101606.88;;;20.66;100.00
11987;BME280;6053;51.382;6.768;2023-05-08T01:24:00;101616.41;;;20.60;100.00
11987;BME280;6053;51.382;6.768;2023-05-08T01:30:26;101621.16;;;20.70;100.00
11987;BME280;6053;51.382;6.768;2023-05-08T01:33:09;101622.00;;;20.76;100.00
11987;BME280;6053;51.382;6.768;2023-05-08T01:35:44;101621.16;;;20.65;100.00
11987;BME280;6053;51.382;6.768;2023-05-08T01:38:21;101624.81;;;20.60;100.00
11987;BME280;6053;51.382;6.768;2023-05-08T01:40:55;101622.56;;;20.57;100.00
11987;BME280;6053;51.382;6.768;2023-05-08T01:43:32;101626.75;;;20.65;100.00
11987;BME280;6053;51.382;6.768;2023-05-08T01:46:07;101619.47;;;20.54;100.00
11987;BME280;6053;51.382;6.768;2023-05-08T01:48:46;101623.53;;;20.10;100.00
11987;BME280;6053;51.382;6.768;2023-05-08T01:51:19;101631.41;;;20.23;100.00
11987;BME280;6053;51.382;6.768;2023-05-08T01:53:52;101624.44;;;20.41;100.00
11987;BME280;6053;51.382;6.768;2023-05-08T01:56:24;101623.91;;;20.49;100.00
11987;BME280;6053;51.382;6.768;2023-05-08T02:01:26;101639.88;;;20.39;100.00
11987;BME280;6053;51.382;6.768;2023-05-08T02:03:57;101629.50;;;20.39;100.00
11987;BME280;6053;51.382;6.768;2023-05-08T02:06:27;101642.97;;;20.42;100.00
11987;BME280;6053;51.382;6.768;2023-05-08T02:08:58;101643.50;;;20.44;100.00
11987;BME280;6053;51.382;6.768;2023-05-08T02:11:29;101642.41;;;20.40;100.00
11987;BME280;6053;51.382;6.768;2023-05-08T02:13:59;101652.50;;;20.46;100.00
11987;BME280;6053;51.382;6.768;2023-05-08T02:16:29;101656.41;;;20.40;100.00
11987;BME280;6053;51.382;6.768;2023-05-08T02:19:01;101651.63;;;20.41;100.00
11987;BME280;6053;51.382;6.768;2023-05-08T02:21:30;101655.28;;;20.41;100.00
11987;BME280;6053;51.382;6.768;2023-05-08T02:24:00;101652.75;;;20.45;100.00
11987;BME280;6053;51.382;6.768;2023-05-08T02:26:31;101656.97;;;20.47;100.00
11987;BME280;6053;51.382;6.768;2023-05-08T02:29:01;101651.38;;;20.47;100.00
11987;BME280;6053;51.382;6.768;2023-05-08T02:31:30;101655.00;;;20.48;100.00
11987;BME280;6053;51.382;6.768;2023-05-08T02:34:01;101666.47;;;20.26;100.00
11987;BME280;6053;51.382;6.768;2023-05-08T02:36:31;101661.97;;;20.30;100.00
11987;BME280;6053;51.382;6.768;2023-05-08T02:39:00;101656.63;;;20.23;100.00
11987;BME280;6053;51.382;6.768;2023-05-08T02:41:31;101655.25;;;20.31;100.00
11987;BME280;6053;51.382;6.768;2023-05-08T02:44:00;101665.38;;;20.32;100.00
11987;BME280;6053;51.382;6.768;2023-05-08T02:46:38;101662.28;;;20.34;100.00
11987;BME280;6053;51.382;6.768;2023-05-08T02:49:26;101658.34;;;20.30;100.00
11987;BME280;6053;51.382;6.768;2023-05-08T02:52:02;101654.69;;;20.34;100.00
11987;BME280;6053;51.382;6.768;2023-05-08T02:54:37;101656.13;;;20.37;100.00
11987;BME280;6053;51.382;6.768;2023-05-08T02:57:12;101658.59;;;20.28;100.00
11987;BME280;6053;51.382;6.768;2023-05-08T02:59:44;101651.09;;;20.39;100.00
11987;BME280;6053;51.382;6.768;2023-05-08T03:02:17;101660.84;;;20.31;100.00
11987;BME280;6053;51.382;6.768;2023-05-08T03:04:54;101644.00;;;20.21;100.00
11987;BME280;6053;51.382;6.768;2023-05-08T03:07:24;101647.91;;;20.10;100.00
11987;BME280;6053;51.382;6.768;2023-05-08T03:09:59;101647.88;;;19.99;100.00
11987;BME280;6053;51.382;6.768;2023-05-08T03:12:31;101655.19;;;20.06;100.00
11987;BME280;6053;51.382;6.768;2023-05-08T03:15:06;101651.25;;;20.07;100.00
11987;BME280;6053;51.382;6.768;2023-05-08T03:17:36;101646.19;;;20.04;100.00
11987;BME280;6053;51.382;6.768;2023-05-08T03:20:11;101644.81;;;20.06;100.00
11987;BME280;6053;51.382;6.768;2023-05-08T03:22:43;101645.09;;;20.10;100.00
11987;BME280;6053;51.382;6.768;2023-05-08T03:25:13;101644.53;;;20.08;100.00
11987;BME280;6053;51.382;6.768;2023-05-08T03:27:44;101640.22;;;19.85;100.00
11987;BME280;6053;51.382;6.768;2023-05-08T03:30:14;101647.53;;;19.91;100.00
11987;BME280;6053;51.382;6.768;2023-05-08T03:32:44;101639.47;;;19.99;100.00
11987;BME280;6053;51.382;6.768;2023-05-08T03:35:15;101636.94;;;19.98;100.00
11987;BME280;6053;51.382;6.768;2023-05-08T03:37:43;101640.31;;;20.00;100.00
11987;BME280;6053;51.382;6.768;2023-05-08T03:40:12;101642.28;;;19.99;100.00
11987;BME280;6053;51.382;6.768;2023-05-08T03:42:41;101642.59;;;19.61;100.00
11987;BME280;6053;51.382;6.768;2023-05-08T03:45:10;101643.81;;;19.70;100.00
11987;BME280;6053;51.382;6.768;2023-05-08T03:47:41;101635.75;;;19.78;100.00
11987;BME280;6053;51.382;6.768;2023-05-08T03:50:10;101644.09;;;19.73;100.00
11987;BME280;6053;51.382;6.768;2023-05-08T03:52:41;101645.13;;;19.62;100.00
11987;BME280;6053;51.382;6.768;2023-05-08T03:55:09;101643.56;;;19.76;100.00
11987;BME280;6053;51.382;6.768;2023-05-08T03:57:47;101654.31;;;19.58;100.00
11987;BME280;6053;51.382;6.768;2023-05-08T04:00:24;101646.84;;;19.68;100.00
11987;BME280;6053;51.382;6.768;2023-05-08T04:03:10;101659.22;;;19.72;100.00
11987;BME280;6053;51.382;6.768;2023-05-08T04:05:50;101658.72;;;19.86;100.00
11987;BME280;6053;51.382;6.768;2023-05-08T04:08:26;101653.13;;;19.43;99.89
11987;BME280;6053;51.382;6.768;2023-05-08T04:11:05;101653.31;;;19.69;100.00
11987;BME280;6053;51.382;6.768;2023-05-08T04:13:42;101659.00;;;19.84;99.71
11987;BME280;6053;51.382;6.768;2023-05-08T04:16:16;101666.59;;;19.94;98.85
11987;BME280;6053;51.382;6.768;2023-05-08T04:18:49;101655.69;;;19.97;98.17
11987;BME280;6053;51.382;6.768;2023-05-08T04:21:23;101659.63;;;20.01;97.00
11987;BME280;6053;51.382;6.768;2023-05-08T04:23:56;101651.25;;;20.07;97.17
11987;BME280;6053;51.382;6.768;2023-05-08T04:26:25;101647.00;;;19.94;97.63
11987;BME280;6053;51.382;6.768;2023-05-08T04:28:54;101647.63;;;20.06;97.25
11987;BME280;6053;51.382;6.768;2023-05-08T04:31:23;101656.03;;;20.06;96.85
11987;BME280;6053;51.382;6.768;2023-05-08T04:33:53;101657.16;;;20.10;96.15
11987;BME280;6053;51.382;6.768;2023-05-08T04:36:22;101647.63;;;20.06;96.97
11987;BME280;6053;51.382;6.768;2023-05-08T04:38:53;101662.75;;;20.10;96.71
11987;BME280;6053;51.382;6.768;2023-05-08T04:41:21;101662.72;;;20.05;97.18
11987;BME280;6053;51.382;6.768;2023-05-08T04:43:50;101661.38;;;20.13;96.18
11987;BME280;6053;51.382;6.768;2023-05-08T04:46:18;101663.03;;;20.09;96.71
11987;BME280;6053;51.382;6.768;2023-05-08T04:48:46;101660.81;;;20.21;96.25
11987;BME280;6053;51.382;6.768;2023-05-08T04:51:14;101664.22;;;20.23;95.75
11987;BME280;6053;51.382;6.768;2023-05-08T04:53:42;101666.31;;;19.90;96.85
11987;BME280;6053;51.382;6.768;2023-05-08T04:56:12;101668.41;;;19.68;99.79
11987;BME280;6053;51.382;6.768;2023-05-08T04:58:40;101673.59;;;19.12;100.00
11987;BME280;6053;51.382;6.768;2023-05-08T05:01:09;101672.72;;;19.06;100.00
11987;BME280;6053;51.382;6.768;2023-05-08T05:03:37;101677.78;;;19.46;100.00
11987;BME280;6053;51.382;6.768;2023-05-08T05:06:05;101676.78;;;18.93;100.00
11987;BME280;6053;51.382;6.768;2023-05-08T05:08:34;101676.13;;;19.13;100.00
11987;BME280;6053;51.382;6.768;2023-05-08T05:11:02;101672.53;;;17.87;100.00
11987;BME280;6053;51.382;6.768;2023-05-08T05:13:32;101681.38;;;18.77;100.00
11987;BME280;6053;51.382;6.768;2023-05-08T05:16:00;101683.56;;;18.21;100.00
11987;BME280;6053;51.382;6.768;2023-05-08T05:18:28;101684.88;;;18.68;100.00
11987;BME280;6053;51.382;6.768;2023-05-08T05:20:57;101679.00;;;18.15;100.00
11987;BME280;6053;51.382;6.768;2023-05-08T05:23:26;101682.97;;;18.19;100.00
11987;BME280;6053;51.382;6.768;2023-05-08T05:25:54;101686.34;;;17.99;100.00
11987;BME280;6053;51.382;6.768;2023-05-08T05:28:23;101686.78;;;18.13;100.00
11987;BME280;6053;51.382;6.768;2023-05-08T05:30:53;101684.81;;;17.53;100.00
11987;BME280;6053;51.382;6.768;2023-05-08T05:33:21;101682.63;;;17.94;100.00
11987;BME280;6053;51.382;6.768;2023-05-08T05:35:50;101690.03;;;17.66;100.00
11987;BME280;6053;51.382;6.768;2023-05-08T05:38:18;101687.50;;;17.64;100.00
11987;BME280;6053;51.382;6.768;2023-05-08T05:40:47;101685.59;;;17.48;100.00
11987;BME280;6053;51.382;6.768;2023-05-08T05:43:15;101689.72;;;17.46;100.00
11987;BME280;6053;51.382;6.768;2023-05-08T05:45:43;101692.81;;;18.27;100.00
11987;BME280;6053;51.382;6.768;2023-05-08T05:48:13;101694.16;;;18.68;100.00
11987;BME280;6053;51.382;6.768;2023-05-08T05:50:41;101696.00;;;18.13;100.00
11987;BME280;6053;51.382;6.768;2023-05-08T05:53:10;101693.69;;;17.50;100.00
11987;BME280;6053;51.382;6.768;2023-05-08T05:55:38;101694.22;;;18.24;100.00
11987;BME280;6053;51.382;6.768;2023-05-08T05:58:07;101689.41;;;17.98;100.00
11987;BME280;6053;51.382;6.768;2023-05-08T06:00:35;101692.78;;;17.44;100.00
11987;BME280;6053;51.382;6.768;2023-05-08T06:03:03;101694.75;;;18.48;100.00
11987;BME280;6053;51.382;6.768;2023-05-08T06:05:33;101689.78;;;17.67;100.00
11987;BME280;6053;51.382;6.768;2023-05-08T06:08:01;101696.78;;;17.70;100.00
11987;BME280;6053;51.382;6.768;2023-05-08T06:10:32;101690.69;;;18.12;100.00
11987;BME280;6053;51.382;6.768;2023-05-08T06:13:00;101701.22;;;18.54;100.00
11987;BME280;6053;51.382;6.768;2023-05-08T06:15:28;101695.88;;;18.74;100.00
11987;BME280;6053;51.382;6.768;2023-05-08T06:17:57;101700.06;;;18.50;100.00
11987;BME280;6053;51.382;6.768;2023-05-08T06:20:25;101703.94;;;17.78;100.00
11987;BME280;6053;51.382;6.768;2023-05-08T06:22:55;101698.16;;;18.77;100.00
11987;BME280;6053;51.382;6.768;2023-05-08T06:25:23;101688.34;;;17.82;100.00
11987;BME280;6053;51.382;6.768;2023-05-08T06:27:54;101698.25;;;18.88;100.00
11987;BME280;6053;51.382;6.768;2023-05-08T06:30:22;101692.00;;;18.04;100.00
11987;BME280;6053;51.382;6.768;2023-05-08T06:32:51;101707.03;;;20.13;100.00
11987;BME280;6053;51.382;6.768;2023-05-08T06:35:19;101708.81;;;20.45;98.83
11987;BME280;6053;51.382;6.768;2023-05-08T06:37:47;101712.06;;;21.61;93.06
11987;BME280;6053;51.382;6.768;2023-05-08T06:40:17;101719.25;;;20.55;94.48
11987;BME280;6053;51.382;6.768;2023-05-08T06:42:45;101733.72;;;20.26;96.09
11987;BME280;6053;51.382;6.768;2023-05-08T06:45:14;101720.47;;;18.99;100.00
11987;BME280;6053;51.382;6.768;2023-05-08T06:47:42;101724.72;;;19.07;100.00
11987;BME280;6053;51.382;6.768;2023-05-08T06:50:11;101730.53;;;20.70;99.70
11987;BME280;6053;51.382;6.768;2023-05-08T06:52:39;101733.28;;;19.60;100.00
11987;BME280;6053;51.382;6.768;2023-05-08T06:55:08;101734.56;;;20.32;97.45
11987;BME280;6053;51.382;6.768;2023-05-08T06:57:38;101732.63;;;20.37;94.42
11987;BME280;6053;51.382;6.768;2023-05-08T07:00:08;101734.78;;;20.93;91.80
11987;BME280;6053;51.382;6.768;2023-05-08T07:02:37;101737.63;;;20.30;93.84
11987;BME280;6053;51.382;6.768;2023-05-08T07:05:07;101738.06;;;20.59;92.31
11987;BME280;6053;51.382;6.768;2023-05-08T07:07:35;101742.06;;;20.99;89.30
11987;BME280;6053;51.382;6.768;2023-05-08T07:10:04;101735.63;;;21.75;88.01
11987;BME280;6053;51.382;6.768;2023-05-08T07:12:34;101734.91;;;22.40;84.83
11987;BME280;6053;51.382;6.768;2023-05-08T07:15:04;101736.78;;;21.59;86.80
11987;BME280;6053;51.382;6.768;2023-05-08T07:17:50;101736.41;;;22.01;87.72
11987;BME280;6053;51.382;6.768;2023-05-08T07:20:19;101736.34;;;22.37;84.48
11987;BME280;6053;51.382;6.768;2023-05-08T07:22:47;101740.63;;;22.04;83.08
11987;BME280;6053;51.382;6.768;2023-05-08T07:25:16;101743.75;;;21.15;87.82
11987;BME280;6053;51.382;6.768;2023-05-08T07:27:44;101744.34;;;21.07;90.43
11987;BME280;6053;51.382;6.768;2023-05-08T07:30:15;101753.41;;;19.94;95.91
11987;BME280;6053;51.382;6.768;2023-05-08T07:32:43;101753.56;;;20.19;94.55
11987;BME280;6053;51.382;6.768;2023-05-08T07:35:11;101751.78;;;20.03;97.51
11987;BME280;6053;51.382;6.768;2023-05-08T07:37:41;101761.22;;;21.43;91.33
11987;BME280;6053;51.382;6.768;2023-05-08T07:40:10;101757.28;;;21.39;88.11
11987;BME280;6053;51.382;6.768;2023-05-08T07:42:40;101752.94;;;20.65;93.35
11987;BME280;6053;51.382;6.768;2023-05-08T07:45:11;101760.03;;;22.80;82.04
11987;BME280;6053;51.382;6.768;2023-05-08T07:47:49;101755.53;;;24.40;73.29
11987;BME280;6053;51.382;6.768;2023-05-08T07:50:19;101754.09;;;24.38;74.01
11987;BME280;6053;51.382;6.768;2023-05-08T07:52:48;101754.22;;;25.32;70.52
11987;BME280;6053;51.382;6.768;2023-05-08T07:55:17;101753.63;;;22.59;77.36
11987;BME280;6053;51.382;6.768;2023-05-08T07:57:45;101753.63;;;21.69;85.09
11987;BME280;6053;51.382;6.768;2023-05-08T08:00:15;101761.41;;;20.95;89.03
11987;BME280;6053;51.382;6.768;2023-05-08T08:02:44;101761.44;;;21.06;91.82
11987;BME280;6053;51.382;6.768;2023-05-08T08:05:14;101760.09;;;20.45;96.39
11987;BME280;6053;51.382;6.768;2023-05-08T08:07:42;101755.25;;;19.41;96.79
11987;BME280;6053;51.382;6.768;2023-05-08T08:10:11;101752.78;;;20.29;95.40
11987;BME280;6053;51.382;6.768;2023-05-08T08:12:39;101755.63;;;19.87;99.16
11987;BME280;6053;51.382;6.768;2023-05-08T08:15:08;101751.09;;;19.81;100.00
11987;BME280;6053;51.382;6.768;2023-05-08T08:17:37;101750.28;;;19.85;98.42
11987;BME280;6053;51.382;6.768;2023-05-08T08:20:07;101756.81;;;20.59;94.93
11987;BME280;6053;51.382;6.768;2023-05-08T08:22:38;101760.19;;;20.03;96.45
11987;BME280;6053;51.382;6.768;2023-05-08T08:25:07;101750.25;;;21.26;92.02
11987;BME280;6053;51.382;6.768;2023-05-08T08:27:36;101745.97;;;20.15;97.04
11987;BME280;6053;51.382;6.768;2023-05-08T08:30:06;101749.41;;;21.46;89.70
11987;BME280;6053;51.382;6.768;2023-05-08T08:32:44;101748.41;;;22.32;86.27
11987;BME280;6053;51.382;6.768;2023-05-08T08:35:13;101742.66;;;21.22;90.53
11987;BME280;6053;51.382;6.768;2023-05-08T08:37:43;101743.47;;;21.94;89.30
11987;BME280;6053;51.382;6.768;2023-05-08T08:40:12;101740.06;;;22.07;82.38
11987;BME280;6053;51.382;6.768;2023-05-08T08:42:40;101739.56;;;21.08;90.26
11987;BME280;6053;51.382;6.768;2023-05-08T08:45:10;101738.75;;;21.63;86.74
11987;BME280;6053;51.382;6.768;2023-05-08T08:47:39;101739.50;;;22.15;81.26
11987;BME280;6053;51.382;6.768;2023-05-08T08:50:13;101745.19;;;21.28;84.45
11987;BME280;6053;51.382;6.768;2023-05-08T08:52:50;101747.78;;;23.05;81.97
11987;BME280;6053;51.382;6.768;2023-05-08T08:55:21;101743.19;;;22.70;83.21
11987;BME280;6053;51.382;6.768;2023-05-08T08:58:03;101741.16;;;22.21;80.15
11987;BME280;6053;51.382;6.768;2023-05-08T09:00:36;101752.94;;;20.60;84.70
11987;BME280;6053;51.382;6.768;2023-05-08T09:03:05;101752.13;;;20.85;85.59
11987;BME280;6053;51.382;6.768;2023-05-08T09:05:34;101749.09;;;21.02;86.53
11987;BME280;6053;51.382;6.768;2023-05-08T09:08:05;101748.53;;;21.00;84.53
11987;BME280;6053;51.382;6.768;2023-05-08T09:10:34;101753.56;;;20.87;86.71
11987;BME280;6053;51.382;6.768;2023-05-08T09:13:03;101746.28;;;21.12;83.76
11987;BME280;6053;51.382;6.768;2023-05-08T09:15:31;101751.09;;;21.16;84.09
11987;BME280;6053;51.382;6.768;2023-05-08T09:18:00;101756.94;;;20.94;89.89
11987;BME280;6053;51.382;6.768;2023-05-08T09:20:29;101753.91;;;21.42;89.25
11987;BME280;6053;51.382;6.768;2023-05-08T09:23:00;101752.41;;;20.78;90.16
11987;BME280;6053;51.382;6.768;2023-05-08T09:25:42;101754.13;;;20.89;88.85
11987;BME280;6053;51.382;6.768;2023-05-08T09:28:18;101755.63;;;20.39;90.77
11987;BME280;6053;51.382;6.768;2023-05-08T09:30:51;101755.34;;;20.41;92.62
11987;BME280;6053;51.382;6.768;2023-05-08T09:33:22;101756.53;;;20.55;92.47
11987;BME280;6053;51.382;6.768;2023-05-08T09:35:50;101759.22;;;20.30;93.37
11987;BME280;6053;51.382;6.768;2023-05-08T09:38:32;101754.47;;;21.39;85.44
11987;BME280;6053;51.382;6.768;2023-05-08T09:41:13;101757.28;;;20.40;92.42
11987;BME280;6053;51.382;6.768;2023-05-08T09:43:43;101755.59;;;20.34;91.95
11987;BME280;6053;51.382;6.768;2023-05-08T09:46:23;101755.28;;;21.29;91.36
11987;BME280;6053;51.382;6.768;2023-05-08T09:48:54;101757.81;;;21.26;89.88
11987;BME280;6053;51.382;6.768;2023-05-08T09:51:23;101760.66;;;21.41;86.65
11987;BME280;6053;51.382;6.768;2023-05-08T09:53:53;101755.28;;;20.31;94.73
11987;BME280;6053;51.382;6.768;2023-05-08T09:56:34;101752.34;;;20.00;96.05
11987;BME280;6053;51.382;6.768;2023-05-08T09:59:05;101746.03;;;21.13;90.99
11987;BME280;6053;51.382;6.768;2023-05-08T10:01:48;101757.72;;;20.75;92.42
11987;BME280;6053;51.382;6.768;2023-05-08T10:04:17;101752.78;;;20.29;92.66
11987;BME280;6053;51.382;6.768;2023-05-08T10:06:56;101749.69;;;20.31;96.56
11987;BME280;6053;51.382;6.768;2023-05-08T10:09:25;101742.59;;;20.13;96.74
11987;BME280;6053;51.382;6.768;2023-05-08T10:12:10;101750.41;;;20.63;91.84
11987;BME280;6053;51.382;6.768;2023-05-08T10:14:38;101752.09;;;20.12;97.43
11987;BME280;6053;51.382;6.768;2023-05-08T10:17:07;101736.66;;;20.62;95.68
11987;BME280;6053;51.382;6.768;2023-05-08T10:19:39;101748.56;;;20.32;93.49
11987;BME280;6053;51.382;6.768;2023-05-08T10:22:12;101747.25;;;20.49;93.71
11987;BME280;6053;51.382;6.768;2023-05-08T10:24:43;101745.06;;;20.57;94.21
11987;BME280;6053;51.382;6.768;2023-05-08T10:27:19;101746.25;;;20.13;96.85
11987;BME280;6053;51.382;6.768;2023-05-08T10:29:55;101751.41;;;20.42;94.87
11987;BME280;6053;51.382;6.768;2023-05-08T10:32:28;101745.25;;;19.87;93.84
11987;BME280;6053;51.382;6.768;2023-05-08T10:34:59;101748.13;;;19.97;94.48
11987;BME280;6053;51.382;6.768;2023-05-08T10:37:29;101744.78;;;20.00;96.30
11987;BME280;6053;51.382;6.768;2023-05-08T10:39:57;101743.75;;;20.22;96.95
11987;BME280;6053;51.382;6.768;2023-05-08T10:42:28;101742.34;;;20.92;90.51
11987;BME280;6053;51.382;6.768;2023-05-08T10:44:57;101740.13;;;21.20;91.06
11987;BME280;6053;51.382;6.768;2023-05-08T10:47:43;101739.28;;;21.04;89.13
11987;BME280;6053;51.382;6.768;2023-05-08T10:50:33;101737.59;;;21.29;87.92
11987;BME280;6053;51.382;6.768;2023-05-08T10:53:09;101732.81;;;21.75;88.00
11987;BME280;6053;51.382;6.768;2023-05-08T10:55:41;101740.72;;;21.37;85.86
11987;BME280;6053;51.382;6.768;2023-05-08T10:58:15;101736.41;;;22.01;82.71
11987;BME280;6053;51.382;6.768;2023-05-08T11:01:15;101738.94;;;22.08;82.01
11987;BME280;6053;51.382;6.768;2023-05-08T11:03:48;101728.03;;;21.76;85.08
11987;BME280;6053;51.382;6.768;2023-05-08T11:06:43;101726.97;;;21.36;87.28
11987;BME280;6053;51.382;6.768;2023-05-08T11:09:26;101729.84;;;22.36;84.22
11987;BME280;6053;51.382;6.768;2023-05-08T11:12:07;101724.59;;;22.09;82.03
11987;BME280;6053;51.382;6.768;2023-05-08T11:14:40;101725.84;;;21.42;85.23
11987;BME280;6053;51.382;6.768;2023-05-08T11:17:10;101719.34;;;21.06;90.57
11987;BME280;6053;51.382;6.768;2023-05-08T11:19:57;101723.50;;;20.62;87.87
11987;BME280;6053;51.382;6.768;2023-05-08T11:22:28;101722.75;;;21.33;91.49
11987;BME280;6053;51.382;6.768;2023-05-08T11:25:02;101714.28;;;21.69;87.74
11987;BME280;6053;51.382;6.768;2023-05-08T11:27:39;101718.22;;;20.97;88.47
11987;BME280;6053;51.382;6.768;2023-05-08T11:30:32;101711.78;;;21.62;86.44
11987;BME280;6053;51.382;6.768;2023-05-08T11:33:25;101714.59;;;21.16;86.39
11987;BME280;6053;51.382;6.768;2023-05-08T11:35:58;101715.94;;;21.85;84.38
11987;BME280;6053;51.382;6.768;2023-05-08T11:38:31;101710.41;;;21.45;82.32
11987;BME280;6053;51.382;6.768;2023-05-08T11:41:05;101706.91;;;22.04;84.83
11987;BME280;6053;51.382;6.768;2023-05-08T11:44:17;101704.66;;;22.06;85.87
11987;BME280;6053;51.382;6.768;2023-05-08T11:46:52;101706.13;;;22.58;80.69
11987;BME280;6053;51.382;6.768;2023-05-08T11:49:23;101702.78;;;21.71;80.79
11987;BME280;6053;51.382;6.768;2023-05-08T11:51:58;101705.00;;;20.66;86.00
11987;BME280;6053;51.382;6.768;2023-05-08T11:54:29;101700.56;;;21.06;84.22
11987;BME280;6053;51.382;6.768;2023-05-08T11:56:58;101696.22;;;22.11;83.11
11987;BME280;6053;51.382;6.768;2023-05-08T11:59:27;101689.31;;;21.68;82.34
11987;BME280;6053;51.382;6.768;2023-05-08T12:01:57;101696.91;;;21.21;86.40
11987;BME280;6053;51.382;6.768;2023-05-08T12:04:42;101695.19;;;21.81;84.85
11987;BME280;6053;51.382;6.768;2023-05-08T12:07:12;101694.22;;;22.11;84.39
11987;BME280;6053;51.382;6.768;2023-05-08T12:09:42;101692.72;;;22.45;80.75
11987;BME280;6053;51.382;6.768;2023-05-08T12:12:10;101696.41;;;21.39;81.86
11987;BME280;6053;51.382;6.768;2023-05-08T12:14:38;101693.72;;;22.04;81.06
11987;BME280;6053;51.382;6.768;2023-05-08T12:17:09;101695.94;;;22.18;82.11
11987;BME280;6053;51.382;6.768;2023-05-08T12:19:37;101694.53;;;22.20;82.30
11987;BME280;6053;51.382;6.768;2023-05-08T12:22:07;101695.00;;;22.38;76.88
11987;BME280;6053;51.382;6.768;2023-05-08T12:24:37;101685.59;;;21.93;83.50
11987;BME280;6053;51.382;6.768;2023-05-08T12:27:06;101688.69;;;22.61;78.71
11987;BME280;6053;51.382;6.768;2023-05-08T12:29:35;101689.53;;;21.97;76.87
11987;BME280;6053;51.382;6.768;2023-05-08T12:32:04;101684.78;;;23.01;79.75
11987;BME280;6053;51.382;6.768;2023-05-08T12:34:34;101691.59;;;21.30;76.63
11987;BME280;6053;51.382;6.768;2023-05-08T12:37:03;101683.84;;;22.12;80.62
11987;BME280;6053;51.382;6.768;2023-05-08T12:39:35;101683.25;;;22.25;77.81
11987;BME280;6053;51.382;6.768;2023-05-08T12:42:04;101686.81;;;21.56;80.17
11987;BME280;6053;51.382;6.768;2023-05-08T12:44:33;101679.38;;;22.01;83.23
11987;BME280;6053;51.382;6.768;2023-05-08T12:47:03;101679.22;;;21.67;79.20
11987;BME280;6053;51.382;6.768;2023-05-08T12:49:33;101677.50;;;21.65;78.05
11987;BME280;6053;51.382;6.768;2023-05-08T12:52:03;101678.41;;;21.46;86.15
11987;BME280;6053;51.382;6.768;2023-05-08T12:54:34;101677.56;;;22.35;77.01
11987;BME280;6053;51.382;6.768;2023-05-08T12:57:09;101681.25;;;22.31;74.48
11987;BME280;6053;51.382;6.768;2023-05-08T12:59:38;101672.53;;;22.32;74.71
11987;BME280;6053;51.382;6.768;2023-05-08T13:02:15;101669.00;;;22.56;73.67
11987;BME280;6053;51.382;6.768;2023-05-08T13:04:45;101671.44;;;22.28;75.15
11987;BME280;6053;51.382;6.768;2023-05-08T13:07:14;101660.94;;;21.69;77.45
11987;BME280;6053;51.382;6.768;2023-05-08T13:09:59;101658.47;;;21.47;77.56
11987;BME280;6053;51.382;6.768;2023-05-08T13:12:29;101656.38;;;21.88;81.13
11987;BME280;6053;51.382;6.768;2023-05-08T13:14:58;101653.16;;;22.31;79.12
11987;BME280;6053;51.382;6.768;2023-05-08T13:17:26;101659.44;;;22.02;74.56
11987;BME280;6053;51.382;6.768;2023-05-08T13:19:56;101662.06;;;22.43;73.21
11987;BME280;6053;51.382;6.768;2023-05-08T13:22:25;101649.91;;;22.58;76.49
11987;BME280;6053;51.382;6.768;2023-05-08T13:24:53;101647.59;;;22.65;73.81